SPJI

Details ICAO SPJI (JJI)
Name JUANJUI
Region Peru
Timezone America/Lima (UTC-5.0)
Plans Departing 1
Arriving 0
Stats Elevation 1,148 ft / 350 m (AMSL)
Location -7.169102° -76.728560°
Runways 1
Magnetic Variation 3.398° W
Sunrise 2018-05-23 11:12:22 UTC / 2018-05-23 06:12:22 Local
Sunset 2018-05-23 22:57:52 UTC / 2018-05-23 17:57:52 Local
Advertisement - Login to hide

Runways

ID Width Length Bearing (true) Bearing (mag) Surface Threshold Offset Overrun Length
03 98 ft / 30 m 6,931 ft / 2,113 m 33.93° 37.33° Asphalt 0 ft / 0 m 195 ft / 59 m
21 98 ft / 30 m 6,931 ft / 2,113 m 213.93° 217.33° Asphalt 0 ft / 0 m 1,285 ft / 392 m

Map

Weather


0- 5 10 15 20 25 30 35+ Temperature / ° C

Clouds and Precipitation
Forecast for 2018-05-23 12:00 UTC. Updated 4 hours ago

Ground ~20,000 ft ~40,000 ft Winds

METAR

SPJI 231500Z 00000KT 9999 OVC010 26/23 Q1026 RMK PP000

TAF

SPJI 231100Z 2312/2412 00000KT 9999 SCT030 TX32/2320Z TN15/2411Z TEMPO 2317/2322 BKN030 TEMPO 2408/2412 1000 BR SCT007
Warning: Do not use this data for real-world aviation or navigation. No guarantee of current accuracy is given.